sensor_id;sensor_type;location;lat;lon;timestamp;P1;durP1;ratioP1;P2;durP2;ratioP2
17052;SDS011;8643;48.824;11.422;2023-07-31T00:00:55;5.85;;;1.85;;
17052;SDS011;8643;48.824;11.422;2023-07-31T00:03:25;6.78;;;2.03;;
17052;SDS011;8643;48.824;11.422;2023-07-31T00:05:54;3.20;;;1.48;;
17052;SDS011;8643;48.824;11.422;2023-07-31T00:08:23;3.42;;;1.80;;
17052;SDS011;8643;48.824;11.422;2023-07-31T00:10:51;3.13;;;1.75;;
17052;SDS011;8643;48.824;11.422;2023-07-31T00:13:20;3.10;;;1.50;;
17052;SDS011;8643;48.824;11.422;2023-07-31T00:15:48;3.60;;;1.90;;
17052;SDS011;8643;48.824;11.422;2023-07-31T00:18:17;5.78;;;1.90;;
17052;SDS011;8643;48.824;11.422;2023-07-31T00:20:47;6.97;;;2.08;;
17052;SDS011;8643;48.824;11.422;2023-07-31T00:23:16;3.92;;;1.88;;
17052;SDS011;8643;48.824;11.422;2023-07-31T00:25:44;5.30;;;1.58;;
17052;SDS011;8643;48.824;11.422;2023-07-31T00:28:13;3.28;;;1.88;;
17052;SDS011;8643;48.824;11.422;2023-07-31T00:30:42;3.92;;;1.75;;
17052;SDS011;8643;48.824;11.422;2023-07-31T00:33:10;5.00;;;1.85;;
17052;SDS011;8643;48.824;11.422;2023-07-31T00:35:39;5.68;;;1.85;;
17052;SDS011;8643;48.824;11.422;2023-07-31T00:38:09;2.60;;;1.70;;
17052;SDS011;8643;48.824;11.422;2023-07-31T00:40:38;5.32;;;1.98;;
17052;SDS011;8643;48.824;11.422;2023-07-31T00:43:07;5.03;;;1.80;;
17052;SDS011;8643;48.824;11.422;2023-07-31T00:45:35;4.85;;;1.90;;
17052;SDS011;8643;48.824;11.422;2023-07-31T00:48:04;4.28;;;2.05;;
17052;SDS011;8643;48.824;11.422;2023-07-31T00:50:34;4.45;;;1.92;;
17052;SDS011;8643;48.824;11.422;2023-07-31T00:53:03;6.38;;;2.20;;
17052;SDS011;8643;48.824;11.422;2023-07-31T00:55:33;4.32;;;1.80;;
17052;SDS011;8643;48.824;11.422;2023-07-31T00:58:02;5.43;;;1.83;;
17052;SDS011;8643;48.824;11.422;2023-07-31T01:00:31;4.22;;;1.90;;
17052;SDS011;8643;48.824;11.422;2023-07-31T01:02:59;3.10;;;2.10;;
17052;SDS011;8643;48.824;11.422;2023-07-31T01:05:31;5.90;;;2.22;;
17052;SDS011;8643;48.824;11.422;2023-07-31T01:08:08;2.42;;;1.63;;
17052;SDS011;8643;48.824;11.422;2023-07-31T01:10:48;5.05;;;2.17;;
17052;SDS011;8643;48.824;11.422;2023-07-31T01:13:23;7.30;;;2.05;;
17052;SDS011;8643;48.824;11.422;2023-07-31T01:15:52;5.70;;;2.20;;
17052;SDS011;8643;48.824;11.422;2023-07-31T01:18:20;4.93;;;2.00;;
17052;SDS011;8643;48.824;11.422;2023-07-31T01:20:51;3.83;;;1.90;;
17052;SDS011;8643;48.824;11.422;2023-07-31T01:23:47;3.30;;;2.00;;
17052;SDS011;8643;48.824;11.422;2023-07-31T01:26:39;5.90;;;2.00;;
17052;SDS011;8643;48.824;11.422;2023-07-31T01:29:15;5.00;;;2.13;;
17052;SDS011;8643;48.824;11.422;2023-07-31T01:31:50;2.25;;;1.70;;
17052;SDS011;8643;48.824;11.422;2023-07-31T01:34:22;3.45;;;1.77;;
17052;SDS011;8643;48.824;11.422;2023-07-31T01:36:52;4.05;;;1.90;;
17052;SDS011;8643;48.824;11.422;2023-07-31T01:39:22;4.13;;;1.90;;
17052;SDS011;8643;48.824;11.422;2023-07-31T01:41:52;5.28;;;2.10;;
17052;SDS011;8643;48.824;11.422;2023-07-31T01:44:21;3.85;;;1.80;;
17052;SDS011;8643;48.824;11.422;2023-07-31T01:46:49;6.28;;;2.20;;
17052;SDS011;8643;48.824;11.422;2023-07-31T01:49:19;3.63;;;1.90;;
17052;SDS011;8643;48.824;11.422;2023-07-31T01:51:47;5.18;;;2.17;;
17052;SDS011;8643;48.824;11.422;2023-07-31T01:54:16;3.28;;;1.80;;
17052;SDS011;8643;48.824;11.422;2023-07-31T01:56:44;3.95;;;1.80;;
17052;SDS011;8643;48.824;11.422;2023-07-31T01:59:14;4.00;;;1.90;;
17052;SDS011;8643;48.824;11.422;2023-07-31T02:01:42;5.78;;;1.90;;
17052;SDS011;8643;48.824;11.422;2023-07-31T02:04:14;5.68;;;1.80;;
17052;SDS011;8643;48.824;11.422;2023-07-31T02:06:43;4.28;;;1.80;;
17052;SDS011;8643;48.824;11.422;2023-07-31T02:09:12;4.97;;;1.98;;
17052;SDS011;8643;48.824;11.422;2023-07-31T02:11:40;5.75;;;1.73;;
17052;SDS011;8643;48.824;11.422;2023-07-31T02:14:09;5.32;;;1.85;;
17052;SDS011;8643;48.824;11.422;2023-07-31T02:16:41;2.70;;;1.90;;
17052;SDS011;8643;48.824;11.422;2023-07-31T02:19:10;6.13;;;1.90;;
17052;SDS011;8643;48.824;11.422;2023-07-31T02:21:38;4.70;;;2.20;;
17052;SDS011;8643;48.824;11.422;2023-07-31T02:24:07;4.32;;;1.80;;
17052;SDS011;8643;48.824;11.422;2023-07-31T02:26:36;3.25;;;1.70;;
17052;SDS011;8643;48.824;11.422;2023-07-31T02:29:05;5.22;;;1.92;;
17052;SDS011;8643;48.824;11.422;2023-07-31T02:31:33;4.57;;;1.90;;
17052;SDS011;8643;48.824;11.422;2023-07-31T02:34:03;3.97;;;2.17;;
17052;SDS011;8643;48.824;11.422;2023-07-31T02:36:31;6.68;;;2.00;;
17052;SDS011;8643;48.824;11.422;2023-07-31T02:39:00;10.60;;;2.03;;
17052;SDS011;8643;48.824;11.422;2023-07-31T02:41:28;5.20;;;2.20;;
17052;SDS011;8643;48.824;11.422;2023-07-31T02:43:57;4.68;;;2.15;;
17052;SDS011;8643;48.824;11.422;2023-07-31T02:46:26;7.35;;;2.10;;
17052;SDS011;8643;48.824;11.422;2023-07-31T02:48:54;4.82;;;2.40;;
17052;SDS011;8643;48.824;11.422;2023-07-31T02:51:24;4.65;;;2.35;;
17052;SDS011;8643;48.824;11.422;2023-07-31T02:53:52;5.20;;;2.42;;
17052;SDS011;8643;48.824;11.422;2023-07-31T02:56:20;4.78;;;2.25;;
17052;SDS011;8643;48.824;11.422;2023-07-31T02:58:49;3.03;;;1.90;;
17052;SDS011;8643;48.824;11.422;2023-07-31T03:01:18;3.40;;;2.00;;
17052;SDS011;8643;48.824;11.422;2023-07-31T03:03:47;4.97;;;2.33;;
17052;SDS011;8643;48.824;11.422;2023-07-31T03:06:15;6.45;;;2.17;;
17052;SDS011;8643;48.824;11.422;2023-07-31T03:08:45;6.10;;;2.22;;
17052;SDS011;8643;48.824;11.422;2023-07-31T03:11:14;3.80;;;2.42;;
17052;SDS011;8643;48.824;11.422;2023-07-31T03:13:42;5.00;;;2.20;;
17052;SDS011;8643;48.824;11.422;2023-07-31T03:16:11;6.25;;;2.03;;
17052;SDS011;8643;48.824;11.422;2023-07-31T03:18:39;3.92;;;2.45;;
17052;SDS011;8643;48.824;11.422;2023-07-31T03:21:08;4.63;;;2.08;;
17052;SDS011;8643;48.824;11.422;2023-07-31T03:23:36;6.43;;;2.05;;
17052;SDS011;8643;48.824;11.422;2023-07-31T03:26:07;4.95;;;1.90;;
17052;SDS011;8643;48.824;11.422;2023-07-31T03:28:36;4.30;;;2.00;;
17052;SDS011;8643;48.824;11.422;2023-07-31T03:31:04;6.82;;;2.13;;
17052;SDS011;8643;48.824;11.422;2023-07-31T03:33:35;5.88;;;2.10;;
17052;SDS011;8643;48.824;11.422;2023-07-31T03:36:03;4.80;;;2.42;;
17052;SDS011;8643;48.824;11.422;2023-07-31T03:38:32;5.80;;;2.47;;
17052;SDS011;8643;48.824;11.422;2023-07-31T03:41:01;3.80;;;2.08;;
17052;SDS011;8643;48.824;11.422;2023-07-31T03:43:31;4.90;;;2.40;;
17052;SDS011;8643;48.824;11.422;2023-07-31T03:46:00;3.85;;;2.38;;
17052;SDS011;8643;48.824;11.422;2023-07-31T03:48:29;8.90;;;2.13;;
17052;SDS011;8643;48.824;11.422;2023-07-31T03:50:58;6.05;;;2.33;;
17052;SDS011;8643;48.824;11.422;2023-07-31T03:53:27;4.53;;;2.13;;
17052;SDS011;8643;48.824;11.422;2023-07-31T03:55:55;4.25;;;2.50;;
17052;SDS011;8643;48.824;11.422;2023-07-31T03:58:23;3.25;;;2.50;;
17052;SDS011;8643;48.824;11.422;2023-07-31T04:00:53;5.40;;;2.30;;
17052;SDS011;8643;48.824;11.422;2023-07-31T04:03:22;3.80;;;2.45;;
17052;SDS011;8643;48.824;11.422;2023-07-31T04:05:50;4.95;;;2.25;;
17052;SDS011;8643;48.824;11.422;2023-07-31T04:08:18;5.40;;;2.47;;
17052;SDS011;8643;48.824;11.422;2023-07-31T04:10:47;6.38;;;2.55;;
17052;SDS011;8643;48.824;11.422;2023-07-31T04:13:15;4.97;;;2.38;;
17052;SDS011;8643;48.824;11.422;2023-07-31T04:15:47;5.00;;;2.47;;
17052;SDS011;8643;48.824;11.422;2023-07-31T04:18:18;3.50;;;2.15;;
17052;SDS011;8643;48.824;11.422;2023-07-31T04:20:47;5.07;;;2.20;;
17052;SDS011;8643;48.824;11.422;2023-07-31T04:23:16;7.50;;;2.88;;
17052;SDS011;8643;48.824;11.422;2023-07-31T04:25:44;3.45;;;2.35;;
17052;SDS011;8643;48.824;11.422;2023-07-31T04:28:13;7.50;;;2.47;;
17052;SDS011;8643;48.824;11.422;2023-07-31T04:30:41;5.78;;;2.22;;
17052;SDS011;8643;48.824;11.422;2023-07-31T04:33:10;4.55;;;2.20;;
17052;SDS011;8643;48.824;11.422;2023-07-31T04:35:40;4.68;;;2.13;;
17052;SDS011;8643;48.824;11.422;2023-07-31T04:38:08;3.22;;;2.30;;
17052;SDS011;8643;48.824;11.422;2023-07-31T04:40:37;5.55;;;2.80;;
17052;SDS011;8643;48.824;11.422;2023-07-31T04:43:05;5.80;;;2.90;;
17052;SDS011;8643;48.824;11.422;2023-07-31T04:45:34;4.80;;;2.72;;
17052;SDS011;8643;48.824;11.422;2023-07-31T04:48:02;4.00;;;2.50;;
17052;SDS011;8643;48.824;11.422;2023-07-31T04:50:31;5.70;;;2.65;;
17052;SDS011;8643;48.824;11.422;2023-07-31T04:53:01;4.90;;;3.15;;
17052;SDS011;8643;48.824;11.422;2023-07-31T04:55:29;4.95;;;2.80;;
17052;SDS011;8643;48.824;11.422;2023-07-31T04:57:58;7.28;;;3.00;;
17052;SDS011;8643;48.824;11.422;2023-07-31T05:00:27;4.35;;;2.65;;
17052;SDS011;8643;48.824;11.422;2023-07-31T05:02:56;6.85;;;2.90;;
17052;SDS011;8643;48.824;11.422;2023-07-31T05:05:25;5.57;;;2.90;;
17052;SDS011;8643;48.824;11.422;2023-07-31T05:07:54;7.57;;;3.08;;
17052;SDS011;8643;48.824;11.422;2023-07-31T05:10:23;6.15;;;3.08;;
17052;SDS011;8643;48.824;11.422;2023-07-31T05:12:52;5.43;;;3.22;;
17052;SDS011;8643;48.824;11.422;2023-07-31T05:15:20;5.82;;;2.97;;
17052;SDS011;8643;48.824;11.422;2023-07-31T05:17:48;5.32;;;3.00;;
17052;SDS011;8643;48.824;11.422;2023-07-31T05:20:17;6.25;;;3.10;;
17052;SDS011;8643;48.824;11.422;2023-07-31T05:22:46;8.93;;;4.28;;
17052;SDS011;8643;48.824;11.422;2023-07-31T05:25:14;6.43;;;3.60;;
17052;SDS011;8643;48.824;11.422;2023-07-31T05:27:44;9.55;;;3.78;;
17052;SDS011;8643;48.824;11.422;2023-07-31T05:30:13;8.43;;;3.70;;
17052;SDS011;8643;48.824;11.422;2023-07-31T05:32:41;7.60;;;3.15;;
17052;SDS011;8643;48.824;11.422;2023-07-31T05:35:10;7.95;;;3.20;;
17052;SDS011;8643;48.824;11.422;2023-07-31T05:37:39;4.15;;;2.50;;
17052;SDS011;8643;48.824;11.422;2023-07-31T05:40:08;4.10;;;2.50;;
17052;SDS011;8643;48.824;11.422;2023-07-31T05:42:37;5.00;;;2.80;;
17052;SDS011;8643;48.824;11.422;2023-07-31T05:45:07;9.25;;;2.88;;
17052;SDS011;8643;48.824;11.422;2023-07-31T05:47:37;3.97;;;2.70;;
17052;SDS011;8643;48.824;11.422;2023-07-31T05:50:06;3.95;;;2.70;;
17052;SDS011;8643;48.824;11.422;2023-07-31T05:52:35;3.70;;;2.50;;
17052;SDS011;8643;48.824;11.422;2023-07-31T05:55:04;4.07;;;2.40;;
17052;SDS011;8643;48.824;11.422;2023-07-31T05:57:34;9.18;;;2.40;;
17052;SDS011;8643;48.824;11.422;2023-07-31T06:00:03;7.70;;;2.50;;
17052;SDS011;8643;48.824;11.422;2023-07-31T06:02:34;5.07;;;2.45;;
17052;SDS011;8643;48.824;11.422;2023-07-31T06:05:04;6.05;;;2.47;;
17052;SDS011;8643;48.824;11.422;2023-07-31T06:07:33;5.57;;;2.20;;
17052;SDS011;8643;48.824;11.422;2023-07-31T06:10:02;4.57;;;2.42;;
17052;SDS011;8643;48.824;11.422;2023-07-31T06:12:32;6.57;;;2.47;;
17052;SDS011;8643;48.824;11.422;2023-07-31T06:15:01;5.47;;;2.50;;
17052;SDS011;8643;48.824;11.422;2023-07-31T06:17:32;6.20;;;2.50;;
17052;SDS011;8643;48.824;11.422;2023-07-31T06:20:02;6.05;;;2.72;;
17052;SDS011;8643;48.824;11.422;2023-07-31T06:22:31;6.30;;;2.58;;
17052;SDS011;8643;48.824;11.422;2023-07-31T06:25:00;5.00;;;2.30;;
17052;SDS011;8643;48.824;11.422;2023-07-31T06:27:28;5.93;;;2.50;;
17052;SDS011;8643;48.824;11.422;2023-07-31T06:29:57;6.72;;;2.33;;
17052;SDS011;8643;48.824;11.422;2023-07-31T06:32:25;2.78;;;2.25;;
17052;SDS011;8643;48.824;11.422;2023-07-31T06:34:54;4.75;;;2.35;;
17052;SDS011;8643;48.824;11.422;2023-07-31T06:37:24;5.30;;;2.50;;
17052;SDS011;8643;48.824;11.422;2023-07-31T06:39:53;4.63;;;2.47;;
17052;SDS011;8643;48.824;11.422;2023-07-31T06:42:22;6.38;;;2.58;;
17052;SDS011;8643;48.824;11.422;2023-07-31T06:44:51;6.13;;;2.60;;
17052;SDS011;8643;48.824;11.422;2023-07-31T06:47:19;6.03;;;2.47;;
17052;SDS011;8643;48.824;11.422;2023-07-31T06:49:48;4.97;;;2.25;;
17052;SDS011;8643;48.824;11.422;2023-07-31T06:52:16;6.22;;;2.53;;
17052;SDS011;8643;48.824;11.422;2023-07-31T06:54:57;3.55;;;2.20;;
17052;SDS011;8643;48.824;11.422;2023-07-31T06:57:30;5.18;;;2.53;;
17052;SDS011;8643;48.824;11.422;2023-07-31T07:00:00;8.20;;;2.50;;
17052;SDS011;8643;48.824;11.422;2023-07-31T07:02:28;4.50;;;1.95;;
17052;SDS011;8643;48.824;11.422;2023-07-31T07:04:57;5.38;;;2.47;;
17052;SDS011;8643;48.824;11.422;2023-07-31T07:07:25;5.95;;;2.63;;
17052;SDS011;8643;48.824;11.422;2023-07-31T07:09:55;4.03;;;2.33;;
17052;SDS011;8643;48.824;11.422;2023-07-31T07:12:26;4.35;;;2.45;;
17052;SDS011;8643;48.824;11.422;2023-07-31T07:14:57;7.32;;;2.50;;
17052;SDS011;8643;48.824;11.422;2023-07-31T07:17:25;4.60;;;2.10;;
17052;SDS011;8643;48.824;11.422;2023-07-31T07:19:55;5.68;;;2.63;;
17052;SDS011;8643;48.824;11.422;2023-07-31T07:22:23;5.00;;;2.00;;
17052;SDS011;8643;48.824;11.422;2023-07-31T07:24:54;5.80;;;2.30;;
17052;SDS011;8643;48.824;11.422;2023-07-31T07:27:23;4.10;;;2.13;;
17052;SDS011;8643;48.824;11.422;2023-07-31T07:29:52;7.07;;;1.95;;
17052;SDS011;8643;48.824;11.422;2023-07-31T07:32:21;5.70;;;2.10;;
17052;SDS011;8643;48.824;11.422;2023-07-31T07:34:49;5.05;;;2.20;;
17052;SDS011;8643;48.824;11.422;2023-07-31T07:37:18;5.82;;;2.30;;
17052;SDS011;8643;48.824;11.422;2023-07-31T07:39:47;3.63;;;2.17;;
17052;SDS011;8643;48.824;11.422;2023-07-31T07:42:17;4.85;;;1.98;;
17052;SDS011;8643;48.824;11.422;2023-07-31T07:44:46;4.10;;;2.08;;
17052;SDS011;8643;48.824;11.422;2023-07-31T07:47:14;9.20;;;2.25;;
17052;SDS011;8643;48.824;11.422;2023-07-31T07:49:43;6.30;;;2.28;;
17052;SDS011;8643;48.824;11.422;2023-07-31T07:52:18;6.20;;;2.30;;
17052;SDS011;8643;48.824;11.422;2023-07-31T07:54:47;5.70;;;2.17;;
17052;SDS011;8643;48.824;11.422;2023-07-31T07:57:17;5.68;;;2.05;;
17052;SDS011;8643;48.824;11.422;2023-07-31T07:59:47;4.68;;;1.98;;
17052;SDS011;8643;48.824;11.422;2023-07-31T08:02:15;6.85;;;1.95;;
17052;SDS011;8643;48.824;11.422;2023-07-31T08:04:46;7.47;;;2.08;;
17052;SDS011;8643;48.824;11.422;2023-07-31T08:07:16;5.53;;;2.13;;
17052;SDS011;8643;48.824;11.422;2023-07-31T08:09:45;4.35;;;1.90;;
17052;SDS011;8643;48.824;11.422;2023-07-31T08:12:14;4.68;;;1.85;;
17052;SDS011;8643;48.824;11.422;2023-07-31T08:14:44;6.15;;;2.03;;
17052;SDS011;8643;48.824;11.422;2023-07-31T08:17:13;5.13;;;2.00;;
17052;SDS011;8643;48.824;11.422;2023-07-31T08:19:42;3.40;;;2.03;;
17052;SDS011;8643;48.824;11.422;2023-07-31T08:22:11;4.50;;;2.00;;
17052;SDS011;8643;48.824;11.422;2023-07-31T08:24:40;5.95;;;2.13;;
17052;SDS011;8643;48.824;11.422;2023-07-31T08:27:09;5.25;;;1.92;;
17052;SDS011;8643;48.824;11.422;2023-07-31T08:29:37;3.40;;;1.90;;
17052;SDS011;8643;48.824;11.422;2023-07-31T08:32:07;4.40;;;2.00;;
17052;SDS011;8643;48.824;11.422;2023-07-31T08:34:37;5.28;;;2.10;;
17052;SDS011;8643;48.824;11.422;2023-07-31T08:37:06;3.28;;;1.83;;
17052;SDS011;8643;48.824;11.422;2023-07-31T08:39:35;2.58;;;1.77;;
17052;SDS011;8643;48.824;11.422;2023-07-31T08:42:07;3.65;;;1.80;;
17052;SDS011;8643;48.824;11.422;2023-07-31T08:44:37;7.25;;;2.08;;
17052;SDS011;8643;48.824;11.422;2023-07-31T08:47:06;4.88;;;2.00;;
17052;SDS011;8643;48.824;11.422;2023-07-31T08:49:37;4.72;;;1.63;;
17052;SDS011;8643;48.824;11.422;2023-07-31T08:52:09;6.20;;;2.25;;
17052;SDS011;8643;48.824;11.422;2023-07-31T08:54:38;3.83;;;2.08;;
17052;SDS011;8643;48.824;11.422;2023-07-31T08:57:06;5.03;;;1.92;;
17052;SDS011;8643;48.824;11.422;2023-07-31T08:59:37;4.30;;;1.65;;
17052;SDS011;8643;48.824;11.422;2023-07-31T09:02:09;4.20;;;1.73;;
17052;SDS011;8643;48.824;11.422;2023-07-31T09:04:40;4.07;;;1.80;;
17052;SDS011;8643;48.824;11.422;2023-07-31T09:07:09;4.75;;;2.20;;
17052;SDS011;8643;48.824;11.422;2023-07-31T09:09:39;4.72;;;1.75;;
17052;SDS011;8643;48.824;11.422;2023-07-31T09:12:08;5.30;;;1.70;;
17052;SDS011;8643;48.824;11.422;2023-07-31T09:14:37;4.45;;;1.83;;
17052;SDS011;8643;48.824;11.422;2023-07-31T09:17:09;4.13;;;2.10;;
17052;SDS011;8643;48.824;11.422;2023-07-31T09:19:38;4.45;;;2.28;;
17052;SDS011;8643;48.824;11.422;2023-07-31T09:22:07;3.60;;;1.52;;
17052;SDS011;8643;48.824;11.422;2023-07-31T09:24:35;2.63;;;1.73;;
17052;SDS011;8643;48.824;11.422;2023-07-31T09:27:05;6.72;;;2.00;;
17052;SDS011;8643;48.824;11.422;2023-07-31T09:29:34;4.63;;;1.90;;
17052;SDS011;8643;48.824;11.422;2023-07-31T09:32:03;4.22;;;2.08;;
17052;SDS011;8643;48.824;11.422;2023-07-31T09:34:37;3.42;;;1.58;;
17052;SDS011;8643;48.824;11.422;2023-07-31T09:37:06;3.80;;;1.98;;
17052;SDS011;8643;48.824;11.422;2023-07-31T09:39:45;6.35;;;1.80;;
17052;SDS011;8643;48.824;11.422;2023-07-31T09:42:14;4.80;;;2.00;;
17052;SDS011;8643;48.824;11.422;2023-07-31T09:44:54;5.13;;;1.80;;
17052;SDS011;8643;48.824;11.422;2023-07-31T09:47:36;7.55;;;1.83;;
17052;SDS011;8643;48.824;11.422;2023-07-31T09:50:08;4.72;;;1.70;;
17052;SDS011;8643;48.824;11.422;2023-07-31T09:52:38;4.22;;;2.00;;
17052;SDS011;8643;48.824;11.422;2023-07-31T09:55:07;4.30;;;1.70;;
17052;SDS011;8643;48.824;11.422;2023-07-31T09:57:37;4.25;;;2.03;;
17052;SDS011;8643;48.824;11.422;2023-07-31T10:00:10;4.30;;;1.98;;
17052;SDS011;8643;48.824;11.422;2023-07-31T10:02:40;3.60;;;1.85;;
17052;SDS011;8643;48.824;11.422;2023-07-31T10:05:14;3.83;;;1.67;;
17052;SDS011;8643;48.824;11.422;2023-07-31T10:07:45;6.82;;;1.92;;
17052;SDS011;8643;48.824;11.422;2023-07-31T10:10:22;6.10;;;1.90;;
17052;SDS011;8643;48.824;11.422;2023-07-31T10:12:52;6.95;;;2.15;;
17052;SDS011;8643;48.824;11.422;2023-07-31T10:15:23;5.32;;;1.85;;
17052;SDS011;8643;48.824;11.422;2023-07-31T10:17:53;6.80;;;2.00;;
17052;SDS011;8643;48.824;11.422;2023-07-31T10:20:24;5.05;;;2.13;;
17052;SDS011;8643;48.824;11.422;2023-07-31T10:22:55;4.88;;;2.22;;
17052;SDS011;8643;48.824;11.422;2023-07-31T10:25:25;3.90;;;1.83;;
17052;SDS011;8643;48.824;11.422;2023-07-31T10:27:54;4.07;;;2.10;;
17052;SDS011;8643;48.824;11.422;2023-07-31T10:30:26;5.07;;;2.10;;
17052;SDS011;8643;48.824;11.422;2023-07-31T10:32:58;7.60;;;1.95;;
17052;SDS011;8643;48.824;11.422;2023-07-31T10:35:29;5.07;;;2.20;;
17052;SDS011;8643;48.824;11.422;2023-07-31T10:38:09;6.38;;;2.13;;
17052;SDS011;8643;48.824;11.422;2023-07-31T10:40:39;5.65;;;2.35;;
17052;SDS011;8643;48.824;11.422;2023-07-31T10:43:08;4.88;;;2.20;;
17052;SDS011;8643;48.824;11.422;2023-07-31T10:45:38;6.65;;;2.20;;
17052;SDS011;8643;48.824;11.422;2023-07-31T10:48:12;6.85;;;1.67;;
17052;SDS011;8643;48.824;11.422;2023-07-31T10:50:47;5.13;;;2.30;;
17052;SDS011;8643;48.824;11.422;2023-07-31T10:53:23;4.75;;;2.10;;
17052;SDS011;8643;48.824;11.422;2023-07-31T10:55:56;5.75;;;1.80;;
17052;SDS011;8643;48.824;11.422;2023-07-31T10:58:26;5.13;;;2.15;;
17052;SDS011;8643;48.824;11.422;2023-07-31T11:00:55;3.78;;;1.77;;
17052;SDS011;8643;48.824;11.422;2023-07-31T11:03:26;6.28;;;1.85;;
17052;SDS011;8643;48.824;11.422;2023-07-31T11:06:10;4.40;;;1.90;;
17052;SDS011;8643;48.824;11.422;2023-07-31T11:08:44;3.30;;;1.85;;
17052;SDS011;8643;48.824;11.422;2023-07-31T11:11:14;6.57;;;1.92;;
17052;SDS011;8643;48.824;11.422;2023-07-31T11:13:46;5.28;;;1.75;;
17052;SDS011;8643;48.824;11.422;2023-07-31T11:16:16;6.40;;;1.90;;
17052;SDS011;8643;48.824;11.422;2023-07-31T11:18:48;4.78;;;2.05;;
17052;SDS011;8643;48.824;11.422;2023-07-31T11:21:20;2.53;;;1.98;;
17052;SDS011;8643;48.824;11.422;2023-07-31T11:23:50;3.22;;;1.65;;
17052;SDS011;8643;48.824;11.422;2023-07-31T11:26:26;4.05;;;1.95;;
17052;SDS011;8643;48.824;11.422;2023-07-31T11:28:57;4.07;;;1.83;;
17052;SDS011;8643;48.824;11.422;2023-07-31T11:31:25;5.07;;;1.90;;
17052;SDS011;8643;48.824;11.422;2023-07-31T11:34:03;5.15;;;1.73;;
17052;SDS011;8643;48.824;11.422;2023-07-31T11:36:34;5.43;;;2.08;;
17052;SDS011;8643;48.824;11.422;2023-07-31T11:39:07;4.25;;;1.98;;
17052;SDS011;8643;48.824;11.422;2023-07-31T11:41:40;3.38;;;1.63;;
17052;SDS011;8643;48.824;11.422;2023-07-31T11:44:08;3.95;;;1.70;;
17052;SDS011;8643;48.824;11.422;2023-07-31T11:46:53;3.80;;;1.63;;
17052;SDS011;8643;48.824;11.422;2023-07-31T11:49:24;5.53;;;1.60;;
17052;SDS011;8643;48.824;11.422;2023-07-31T11:51:55;3.30;;;1.75;;
17052;SDS011;8643;48.824;11.422;2023-07-31T11:54:23;4.13;;;1.85;;
17052;SDS011;8643;48.824;11.422;2023-07-31T11:56:52;4.45;;;1.83;;
17052;SDS011;8643;48.824;11.422;2023-07-31T11:59:22;3.40;;;1.58;;
17052;SDS011;8643;48.824;11.422;2023-07-31T12:01:51;5.28;;;2.20;;
17052;SDS011;8643;48.824;11.422;2023-07-31T12:04:20;3.25;;;1.88;;
17052;SDS011;8643;48.824;11.422;2023-07-31T12:06:52;2.72;;;1.50;;
17052;SDS011;8643;48.824;11.422;2023-07-31T12:09:24;2.53;;;1.70;;
17052;SDS011;8643;48.824;11.422;2023-07-31T12:11:53;4.55;;;1.70;;
17052;SDS011;8643;48.824;11.422;2023-07-31T12:14:21;3.33;;;1.73;;
17052;SDS011;8643;48.824;11.422;2023-07-31T12:16:53;5.82;;;2.13;;
17052;SDS011;8643;48.824;11.422;2023-07-31T12:19:23;4.60;;;1.80;;
17052;SDS011;8643;48.824;11.422;2023-07-31T12:21:59;6.80;;;2.13;;
17052;SDS011;8643;48.824;11.422;2023-07-31T12:24:27;4.25;;;2.00;;
17052;SDS011;8643;48.824;11.422;2023-07-31T12:26:56;6.03;;;1.70;;
17052;SDS011;8643;48.824;11.422;2023-07-31T12:29:33;3.70;;;1.80;;
17052;SDS011;8643;48.824;11.422;2023-07-31T12:32:18;5.47;;;1.98;;
17052;SDS011;8643;48.824;11.422;2023-07-31T12:34:48;6.50;;;1.88;;
17052;SDS011;8643;48.824;11.422;2023-07-31T12:37:18;4.60;;;2.08;;
17052;SDS011;8643;48.824;11.422;2023-07-31T12:39:49;6.88;;;2.40;;
17052;SDS011;8643;48.824;11.422;2023-07-31T12:42:17;5.38;;;2.20;;
17052;SDS011;8643;48.824;11.422;2023-07-31T12:44:47;4.05;;;2.17;;
17052;SDS011;8643;48.824;11.422;2023-07-31T12:47:16;4.45;;;2.30;;
17052;SDS011;8643;48.824;11.422;2023-07-31T12:49:45;6.20;;;2.17;;
17052;SDS011;8643;48.824;11.422;2023-07-31T12:52:13;4.63;;;2.45;;
17052;SDS011;8643;48.824;11.422;2023-07-31T12:54:43;5.18;;;2.10;;
17052;SDS011;8643;48.824;11.422;2023-07-31T12:57:11;6.32;;;1.92;;
17052;SDS011;8643;48.824;11.422;2023-07-31T12:59:40;5.22;;;2.30;;
17052;SDS011;8643;48.824;11.422;2023-07-31T13:02:09;5.40;;;1.98;;
17052;SDS011;8643;48.824;11.422;2023-07-31T13:04:38;2.53;;;1.80;;
17052;SDS011;8643;48.824;11.422;2023-07-31T13:07:06;3.80;;;2.28;;
17052;SDS011;8643;48.824;11.422;2023-07-31T13:09:35;4.68;;;2.30;;
17052;SDS011;8643;48.824;11.422;2023-07-31T13:12:07;5.43;;;2.00;;
17052;SDS011;8643;48.824;11.422;2023-07-31T13:14:36;5.13;;;1.98;;
17052;SDS011;8643;48.824;11.422;2023-07-31T13:17:04;4.80;;;2.00;;
17052;SDS011;8643;48.824;11.422;2023-07-31T13:19:33;3.85;;;2.13;;
17052;SDS011;8643;48.824;11.422;2023-07-31T13:22:02;4.93;;;1.90;;
17052;SDS011;8643;48.824;11.422;2023-07-31T13:24:31;6.65;;;2.40;;
17052;SDS011;8643;48.824;11.422;2023-07-31T13:27:00;5.10;;;1.98;;
17052;SDS011;8643;48.824;11.422;2023-07-31T13:29:31;3.90;;;2.30;;
17052;SDS011;8643;48.824;11.422;2023-07-31T13:32:00;4.75;;;2.10;;
17052;SDS011;8643;48.824;11.422;2023-07-31T13:34:29;3.90;;;1.80;;
17052;SDS011;8643;48.824;11.422;2023-07-31T13:36:57;3.85;;;2.08;;
17052;SDS011;8643;48.824;11.422;2023-07-31T13:39:27;4.07;;;1.98;;
17052;SDS011;8643;48.824;11.422;2023-07-31T13:41:57;5.13;;;2.22;;
17052;SDS011;8643;48.824;11.422;2023-07-31T13:44:26;5.47;;;2.30;;
17052;SDS011;8643;48.824;11.422;2023-07-31T13:46:55;4.53;;;2.20;;
17052;SDS011;8643;48.824;11.422;2023-07-31T13:49:24;6.13;;;2.13;;
17052;SDS011;8643;48.824;11.422;2023-07-31T13:51:53;4.53;;;2.17;;
17052;SDS011;8643;48.824;11.422;2023-07-31T13:54:22;4.05;;;2.08;;
17052;SDS011;8643;48.824;11.422;2023-07-31T13:56:56;3.45;;;1.98;;
17052;SDS011;8643;48.824;11.422;2023-07-31T13:59:25;4.85;;;2.28;;
17052;SDS011;8643;48.824;11.422;2023-07-31T14:01:55;5.53;;;2.20;;
17052;SDS011;8643;48.824;11.422;2023-07-31T14:04:24;5.15;;;2.33;;
17052;SDS011;8643;48.824;11.422;2023-07-31T14:06:53;4.90;;;2.47;;
17052;SDS011;8643;48.824;11.422;2023-07-31T14:09:23;3.58;;;2.20;;
17052;SDS011;8643;48.824;11.422;2023-07-31T14:11:51;4.00;;;2.22;;
17052;SDS011;8643;48.824;11.422;2023-07-31T14:14:20;4.07;;;2.13;;
17052;SDS011;8643;48.824;11.422;2023-07-31T14:16:49;3.70;;;2.35;;
17052;SDS011;8643;48.824;11.422;2023-07-31T14:19:19;9.38;;;2.90;;
17052;SDS011;8643;48.824;11.422;2023-07-31T14:21:48;5.10;;;2.25;;
17052;SDS011;8643;48.824;11.422;2023-07-31T14:24:35;6.32;;;2.63;;
17052;SDS011;8643;48.824;11.422;2023-07-31T14:27:04;3.65;;;2.42;;
17052;SDS011;8643;48.824;11.422;2023-07-31T14:29:33;6.05;;;2.47;;
17052;SDS011;8643;48.824;11.422;2023-07-31T14:32:02;4.40;;;2.50;;
17052;SDS011;8643;48.824;11.422;2023-07-31T14:34:32;10.10;;;3.35;;
17052;SDS011;8643;48.824;11.422;2023-07-31T14:37:01;5.97;;;2.30;;
17052;SDS011;8643;48.824;11.422;2023-07-31T14:39:30;7.13;;;2.35;;
17052;SDS011;8643;48.824;11.422;2023-07-31T14:41:58;5.07;;;2.10;;
17052;SDS011;8643;48.824;11.422;2023-07-31T14:44:27;4.00;;;2.00;;
17052;SDS011;8643;48.824;11.422;2023-07-31T14:46:55;4.95;;;2.38;;
17052;SDS011;8643;48.824;11.422;2023-07-31T14:49:24;4.80;;;2.40;;
17052;SDS011;8643;48.824;11.422;2023-07-31T14:51:55;6.15;;;2.20;;
17052;SDS011;8643;48.824;11.422;2023-07-31T14:54:23;4.85;;;2.63;;
17052;SDS011;8643;48.824;11.422;2023-07-31T14:56:54;4.20;;;2.28;;
17052;SDS011;8643;48.824;11.422;2023-07-31T14:59:22;5.18;;;2.60;;
17052;SDS011;8643;48.824;11.422;2023-07-31T15:01:51;7.53;;;2.50;;
17052;SDS011;8643;48.824;11.422;2023-07-31T15:04:20;4.32;;;2.70;;